sensor_id;sensor_type;location;lat;lon;timestamp;temperature;humidity
36280;DHT22;22317;47.936;12.742;2023-07-28T00:02:10;14.60;55.70
36280;DHT22;22317;47.936;12.742;2023-07-28T00:04:37;14.70;55.90
36280;DHT22;22317;47.936;12.742;2023-07-28T00:07:04;14.60;55.80
36280;DHT22;22317;47.936;12.742;2023-07-28T00:09:30;14.60;56.50
36280;DHT22;22317;47.936;12.742;2023-07-28T00:11:57;14.60;55.80
36280;DHT22;22317;47.936;12.742;2023-07-28T00:14:23;14.50;55.80
36280;DHT22;22317;47.936;12.742;2023-07-28T00:16:51;14.40;55.70
36280;DHT22;22317;47.936;12.742;2023-07-28T00:19:17;14.40;55.90
36280;DHT22;22317;47.936;12.742;2023-07-28T00:21:44;14.40;56.00
36280;DHT22;22317;47.936;12.742;2023-07-28T00:24:10;14.40;56.10
36280;DHT22;22317;47.936;12.742;2023-07-28T00:26:35;14.30;56.00
36280;DHT22;22317;47.936;12.742;2023-07-28T00:29:01;14.30;56.00
36280;DHT22;22317;47.936;12.742;2023-07-28T00:31:30;14.30;56.10
36280;DHT22;22317;47.936;12.742;2023-07-28T00:33:56;14.30;56.10
36280;DHT22;22317;47.936;12.742;2023-07-28T00:36:23;14.20;56.10
36280;DHT22;22317;47.936;12.742;2023-07-28T00:38:48;14.20;56.10
36280;DHT22;22317;47.936;12.742;2023-07-28T00:41:15;14.10;56.10
36280;DHT22;22317;47.936;12.742;2023-07-28T00:43:41;14.10;56.10
36280;DHT22;22317;47.936;12.742;2023-07-28T00:46:08;14.00;56.20
36280;DHT22;22317;47.936;12.742;2023-07-28T00:48:34;13.90;56.30
36280;DHT22;22317;47.936;12.742;2023-07-28T00:51:00;13.90;56.40
36280;DHT22;22317;47.936;12.742;2023-07-28T00:53:25;13.80;56.50
36280;DHT22;22317;47.936;12.742;2023-07-28T00:55:52;13.80;56.70
36280;DHT22;22317;47.936;12.742;2023-07-28T00:58:19;13.80;56.70
36280;DHT22;22317;47.936;12.742;2023-07-28T01:00:44;13.80;56.80
36280;DHT22;22317;47.936;12.742;2023-07-28T01:03:10;13.80;56.90
36280;DHT22;22317;47.936;12.742;2023-07-28T01:08:46;13.80;56.90
36280;DHT22;22317;47.936;12.742;2023-07-28T01:11:14;13.70;56.70
36280;DHT22;22317;47.936;12.742;2023-07-28T01:13:40;13.70;56.70
36280;DHT22;22317;47.936;12.742;2023-07-28T01:16:07;13.60;56.60
36280;DHT22;22317;47.936;12.742;2023-07-28T01:18:33;13.60;56.90
36280;DHT22;22317;47.936;12.742;2023-07-28T01:21:02;13.60;57.00
36280;DHT22;22317;47.936;12.742;2023-07-28T01:23:50;13.60;57.10
36280;DHT22;22317;47.936;12.742;2023-07-28T01:26:51;13.60;57.10
36280;DHT22;22317;47.936;12.742;2023-07-28T01:29:11;13.60;57.00
36280;DHT22;22317;47.936;12.742;2023-07-28T01:31:39;13.50;56.90
36280;DHT22;22317;47.936;12.742;2023-07-28T01:34:05;13.50;56.90
36280;DHT22;22317;47.936;12.742;2023-07-28T01:36:30;13.50;57.00
36280;DHT22;22317;47.936;12.742;2023-07-28T01:38:56;13.40;57.10
36280;DHT22;22317;47.936;12.742;2023-07-28T01:41:22;13.40;57.20
36280;DHT22;22317;47.936;12.742;2023-07-28T01:43:49;13.40;57.20
36280;DHT22;22317;47.936;12.742;2023-07-28T01:46:15;13.40;57.30
36280;DHT22;22317;47.936;12.742;2023-07-28T01:48:41;13.40;57.40
36280;DHT22;22317;47.936;12.742;2023-07-28T01:51:06;13.30;57.50
36280;DHT22;22317;47.936;12.742;2023-07-28T01:53:32;13.30;57.60
36280;DHT22;22317;47.936;12.742;2023-07-28T01:55:58;13.30;57.70
36280;DHT22;22317;47.936;12.742;2023-07-28T01:58:26;13.30;57.70
36280;DHT22;22317;47.936;12.742;2023-07-28T02:00:51;13.30;57.70
36280;DHT22;22317;47.936;12.742;2023-07-28T02:03:17;13.40;57.80
36280;DHT22;22317;47.936;12.742;2023-07-28T02:05:43;13.30;57.80
36280;DHT22;22317;47.936;12.742;2023-07-28T02:08:10;13.40;57.90
36280;DHT22;22317;47.936;12.742;2023-07-28T02:10:35;13.40;57.80
36280;DHT22;22317;47.936;12.742;2023-07-28T02:13:01;13.40;57.70
36280;DHT22;22317;47.936;12.742;2023-07-28T02:15:27;13.40;57.70
36280;DHT22;22317;47.936;12.742;2023-07-28T02:17:53;13.40;57.70
36280;DHT22;22317;47.936;12.742;2023-07-28T02:20:18;13.40;57.70
36280;DHT22;22317;47.936;12.742;2023-07-28T02:22:44;13.40;57.50
36280;DHT22;22317;47.936;12.742;2023-07-28T02:25:10;13.30;57.50
36280;DHT22;22317;47.936;12.742;2023-07-28T02:27:37;13.30;57.60
36280;DHT22;22317;47.936;12.742;2023-07-28T02:30:04;13.30;57.70
36280;DHT22;22317;47.936;12.742;2023-07-28T02:32:30;13.30;57.70
36280;DHT22;22317;47.936;12.742;2023-07-28T02:34:56;13.30;57.70
36280;DHT22;22317;47.936;12.742;2023-07-28T02:37:22;13.30;57.80
36280;DHT22;22317;47.936;12.742;2023-07-28T02:39:48;13.20;57.70
36280;DHT22;22317;47.936;12.742;2023-07-28T02:42:14;13.30;57.80
36280;DHT22;22317;47.936;12.742;2023-07-28T02:44:40;13.30;57.80
36280;DHT22;22317;47.936;12.742;2023-07-28T02:47:06;13.30;57.80
36280;DHT22;22317;47.936;12.742;2023-07-28T02:49:33;13.30;57.80
36280;DHT22;22317;47.936;12.742;2023-07-28T02:51:59;13.30;57.80
36280;DHT22;22317;47.936;12.742;2023-07-28T02:54:25;13.30;58.50
36280;DHT22;22317;47.936;12.742;2023-07-28T02:56:51;13.30;57.80
36280;DHT22;22317;47.936;12.742;2023-07-28T02:59:17;13.30;57.70
36280;DHT22;22317;47.936;12.742;2023-07-28T03:01:43;13.20;57.60
36280;DHT22;22317;47.936;12.742;2023-07-28T03:04:09;13.20;57.80
36280;DHT22;22317;47.936;12.742;2023-07-28T03:06:57;13.20;57.70
36280;DHT22;22317;47.936;12.742;2023-07-28T03:09:23;13.20;57.70
36280;DHT22;22317;47.936;12.742;2023-07-28T03:11:59;13.20;57.80
36280;DHT22;22317;47.936;12.742;2023-07-28T03:14:25;13.10;57.70
36280;DHT22;22317;47.936;12.742;2023-07-28T03:16:52;13.10;57.80
36280;DHT22;22317;47.936;12.742;2023-07-28T03:19:17;13.10;57.90
36280;DHT22;22317;47.936;12.742;2023-07-28T03:21:43;13.00;57.80
36280;DHT22;22317;47.936;12.742;2023-07-28T03:24:09;13.00;58.00
36280;DHT22;22317;47.936;12.742;2023-07-28T03:26:35;12.90;58.60
36280;DHT22;22317;47.936;12.742;2023-07-28T03:29:00;12.90;57.90
36280;DHT22;22317;47.936;12.742;2023-07-28T03:31:26;12.90;58.10
36280;DHT22;22317;47.936;12.742;2023-07-28T03:33:52;12.90;58.30
36280;DHT22;22317;47.936;12.742;2023-07-28T03:36:18;12.90;58.30
36280;DHT22;22317;47.936;12.742;2023-07-28T03:38:45;12.90;58.30
36280;DHT22;22317;47.936;12.742;2023-07-28T03:41:11;12.90;58.30
36280;DHT22;22317;47.936;12.742;2023-07-28T03:43:37;12.90;58.30
36280;DHT22;22317;47.936;12.742;2023-07-28T03:46:03;12.90;58.30
36280;DHT22;22317;47.936;12.742;2023-07-28T03:48:29;12.90;58.30
36280;DHT22;22317;47.936;12.742;2023-07-28T03:50:55;12.90;58.30
36280;DHT22;22317;47.936;12.742;2023-07-28T03:53:21;12.90;58.20
36280;DHT22;22317;47.936;12.742;2023-07-28T03:55:46;12.90;58.20
36280;DHT22;22317;47.936;12.742;2023-07-28T03:58:12;12.90;58.30
36280;DHT22;22317;47.936;12.742;2023-07-28T04:00:38;12.90;58.30
36280;DHT22;22317;47.936;12.742;2023-07-28T04:03:04;12.80;58.30
36280;DHT22;22317;47.936;12.742;2023-07-28T04:05:29;12.80;58.40
36280;DHT22;22317;47.936;12.742;2023-07-28T04:07:55;12.80;58.50
36280;DHT22;22317;47.936;12.742;2023-07-28T04:10:21;12.80;58.50
36280;DHT22;22317;47.936;12.742;2023-07-28T04:12:47;12.90;58.60
36280;DHT22;22317;47.936;12.742;2023-07-28T04:15:13;12.80;58.50
36280;DHT22;22317;47.936;12.742;2023-07-28T04:17:38;12.90;58.40
36280;DHT22;22317;47.936;12.742;2023-07-28T04:20:05;12.90;58.50
36280;DHT22;22317;47.936;12.742;2023-07-28T04:22:31;12.90;58.60
36280;DHT22;22317;47.936;12.742;2023-07-28T04:24:57;12.80;58.50
36280;DHT22;22317;47.936;12.742;2023-07-28T04:27:23;12.90;58.60
36280;DHT22;22317;47.936;12.742;2023-07-28T04:29:50;12.90;58.70
36280;DHT22;22317;47.936;12.742;2023-07-28T04:32:19;12.90;58.70
36280;DHT22;22317;47.936;12.742;2023-07-28T04:34:45;12.90;58.70
36280;DHT22;22317;47.936;12.742;2023-07-28T04:37:13;12.90;58.60
36280;DHT22;22317;47.936;12.742;2023-07-28T04:39:50;12.90;58.50
36280;DHT22;22317;47.936;12.742;2023-07-28T04:42:16;12.90;58.60
36280;DHT22;22317;47.936;12.742;2023-07-28T04:44:45;12.90;58.70
36280;DHT22;22317;47.936;12.742;2023-07-28T04:47:12;13.00;59.50
36280;DHT22;22317;47.936;12.742;2023-07-28T04:49:38;13.10;59.00
36280;DHT22;22317;47.936;12.742;2023-07-28T04:52:07;13.10;59.00
36280;DHT22;22317;47.936;12.742;2023-07-28T04:54:52;13.20;59.00
36280;DHT22;22317;47.936;12.742;2023-07-28T04:57:18;13.20;58.90
36280;DHT22;22317;47.936;12.742;2023-07-28T04:59:45;13.40;59.00
36280;DHT22;22317;47.936;12.742;2023-07-28T05:02:11;13.40;59.00
36280;DHT22;22317;47.936;12.742;2023-07-28T05:04:37;13.50;58.90
36280;DHT22;22317;47.936;12.742;2023-07-28T05:07:03;13.60;58.80
36280;DHT22;22317;47.936;12.742;2023-07-28T05:09:30;13.60;58.80
36280;DHT22;22317;47.936;12.742;2023-07-28T05:11:56;13.70;58.60
36280;DHT22;22317;47.936;12.742;2023-07-28T05:14:22;13.80;58.60
36280;DHT22;22317;47.936;12.742;2023-07-28T05:16:48;13.80;58.40
36280;DHT22;22317;47.936;12.742;2023-07-28T05:19:26;13.90;58.50
36280;DHT22;22317;47.936;12.742;2023-07-28T05:21:55;14.00;58.60
36280;DHT22;22317;47.936;12.742;2023-07-28T05:24:28;14.10;58.60
36280;DHT22;22317;47.936;12.742;2023-07-28T05:26:54;14.20;58.40
36280;DHT22;22317;47.936;12.742;2023-07-28T05:29:19;14.30;58.20
36280;DHT22;22317;47.936;12.742;2023-07-28T05:31:47;14.40;58.20
36280;DHT22;22317;47.936;12.742;2023-07-28T05:34:24;14.50;58.10
36280;DHT22;22317;47.936;12.742;2023-07-28T05:36:50;16.80;59.30
36280;DHT22;22317;47.936;12.742;2023-07-28T05:39:16;14.70;58.10
36280;DHT22;22317;47.936;12.742;2023-07-28T05:41:44;14.80;58.00
36280;DHT22;22317;47.936;12.742;2023-07-28T05:44:11;14.90;57.80
36280;DHT22;22317;47.936;12.742;2023-07-28T05:46:37;15.00;57.90
36280;DHT22;22317;47.936;12.742;2023-07-28T05:49:03;15.10;57.90
36280;DHT22;22317;47.936;12.742;2023-07-28T05:51:29;15.20;57.80
36280;DHT22;22317;47.936;12.742;2023-07-28T05:53:55;15.20;57.70
36280;DHT22;22317;47.936;12.742;2023-07-28T05:56:20;15.30;57.60
36280;DHT22;22317;47.936;12.742;2023-07-28T05:58:48;15.40;57.40
36280;DHT22;22317;47.936;12.742;2023-07-28T06:01:15;15.50;57.30
36280;DHT22;22317;47.936;12.742;2023-07-28T06:03:59;15.60;57.10
36280;DHT22;22317;47.936;12.742;2023-07-28T06:06:27;15.60;57.50
36280;DHT22;22317;47.936;12.742;2023-07-28T06:08:53;15.60;56.60
36280;DHT22;22317;47.936;12.742;2023-07-28T06:11:20;15.60;56.40
36280;DHT22;22317;47.936;12.742;2023-07-28T06:13:46;15.50;56.60
36280;DHT22;22317;47.936;12.742;2023-07-28T06:16:16;15.50;57.00
36280;DHT22;22317;47.936;12.742;2023-07-28T06:18:43;15.50;57.40
36280;DHT22;22317;47.936;12.742;2023-07-28T06:21:13;15.50;57.50
36280;DHT22;22317;47.936;12.742;2023-07-28T06:23:39;15.50;57.70
36280;DHT22;22317;47.936;12.742;2023-07-28T06:26:05;15.60;57.80
36280;DHT22;22317;47.936;12.742;2023-07-28T06:28:31;15.60;57.90
36280;DHT22;22317;47.936;12.742;2023-07-28T06:30:57;15.60;58.00
36280;DHT22;22317;47.936;12.742;2023-07-28T06:33:25;15.70;58.20
36280;DHT22;22317;47.936;12.742;2023-07-28T06:35:51;15.70;58.30
36280;DHT22;22317;47.936;12.742;2023-07-28T06:38:18;15.80;58.50
36280;DHT22;22317;47.936;12.742;2023-07-28T06:40:44;15.80;58.40
36280;DHT22;22317;47.936;12.742;2023-07-28T06:43:10;15.90;58.50
36280;DHT22;22317;47.936;12.742;2023-07-28T06:45:36;15.90;58.70
36280;DHT22;22317;47.936;12.742;2023-07-28T06:48:02;15.90;58.80
36280;DHT22;22317;47.936;12.742;2023-07-28T06:50:28;15.90;59.00
36280;DHT22;22317;47.936;12.742;2023-07-28T06:52:53;15.90;59.80
36280;DHT22;22317;47.936;12.742;2023-07-28T06:55:22;16.00;59.30
36280;DHT22;22317;47.936;12.742;2023-07-28T06:57:48;16.00;59.30
36280;DHT22;22317;47.936;12.742;2023-07-28T07:00:16;16.00;59.30
36280;DHT22;22317;47.936;12.742;2023-07-28T07:02:43;16.10;59.50
36280;DHT22;22317;47.936;12.742;2023-07-28T07:05:10;16.10;59.50
36280;DHT22;22317;47.936;12.742;2023-07-28T07:07:36;16.20;59.70
36280;DHT22;22317;47.936;12.742;2023-07-28T07:10:02;16.20;59.80
36280;DHT22;22317;47.936;12.742;2023-07-28T07:12:27;16.30;59.80
36280;DHT22;22317;47.936;12.742;2023-07-28T07:14:53;16.40;60.10
36280;DHT22;22317;47.936;12.742;2023-07-28T07:17:19;16.50;60.10
36280;DHT22;22317;47.936;12.742;2023-07-28T07:19:45;16.60;60.30
36280;DHT22;22317;47.936;12.742;2023-07-28T07:22:11;16.80;60.40
36280;DHT22;22317;47.936;12.742;2023-07-28T07:24:36;17.00;60.40
36280;DHT22;22317;47.936;12.742;2023-07-28T07:27:02;17.10;59.80
36280;DHT22;22317;47.936;12.742;2023-07-28T07:29:28;17.30;59.60
36280;DHT22;22317;47.936;12.742;2023-07-28T07:31:54;17.30;59.10
36280;DHT22;22317;47.936;12.742;2023-07-28T07:34:22;17.30;58.90
36280;DHT22;22317;47.936;12.742;2023-07-28T07:36:49;17.50;58.80
36280;DHT22;22317;47.936;12.742;2023-07-28T07:39:14;17.50;58.70
36280;DHT22;22317;47.936;12.742;2023-07-28T07:41:40;17.70;58.70
36280;DHT22;22317;47.936;12.742;2023-07-28T07:44:06;17.90;58.80
36280;DHT22;22317;47.936;12.742;2023-07-28T07:46:32;18.00;58.40
36280;DHT22;22317;47.936;12.742;2023-07-28T07:48:58;18.20;58.30
36280;DHT22;22317;47.936;12.742;2023-07-28T07:51:23;18.40;57.90
36280;DHT22;22317;47.936;12.742;2023-07-28T07:53:49;18.50;57.30
36280;DHT22;22317;47.936;12.742;2023-07-28T07:56:15;18.70;57.00
36280;DHT22;22317;47.936;12.742;2023-07-28T07:58:42;18.80;57.00
36280;DHT22;22317;47.936;12.742;2023-07-28T08:01:08;18.90;57.10
36280;DHT22;22317;47.936;12.742;2023-07-28T08:03:34;19.10;57.10
36280;DHT22;22317;47.936;12.742;2023-07-28T08:06:02;19.30;56.90
36280;DHT22;22317;47.936;12.742;2023-07-28T08:08:28;19.50;56.20
36280;DHT22;22317;47.936;12.742;2023-07-28T08:10:54;19.70;55.50
36280;DHT22;22317;47.936;12.742;2023-07-28T08:13:20;19.80;55.10
36280;DHT22;22317;47.936;12.742;2023-07-28T08:15:46;19.90;54.90
36280;DHT22;22317;47.936;12.742;2023-07-28T08:18:12;20.00;54.30
36280;DHT22;22317;47.936;12.742;2023-07-28T08:20:38;20.00;53.70
36280;DHT22;22317;47.936;12.742;2023-07-28T08:23:04;20.10;53.30
36280;DHT22;22317;47.936;12.742;2023-07-28T08:25:30;20.20;52.90
36280;DHT22;22317;47.936;12.742;2023-07-28T08:27:56;20.30;53.00
36280;DHT22;22317;47.936;12.742;2023-07-28T08:30:21;20.50;53.30
36280;DHT22;22317;47.936;12.742;2023-07-28T08:32:47;20.70;53.00
36280;DHT22;22317;47.936;12.742;2023-07-28T08:35:14;20.80;52.30
36280;DHT22;22317;47.936;12.742;2023-07-28T08:37:40;20.90;51.50
36280;DHT22;22317;47.936;12.742;2023-07-28T08:40:06;21.00;51.10
36280;DHT22;22317;47.936;12.742;2023-07-28T08:42:37;21.20;50.80
36280;DHT22;22317;47.936;12.742;2023-07-28T08:45:04;21.30;49.80
36280;DHT22;22317;47.936;12.742;2023-07-28T08:47:31;21.40;49.50
36280;DHT22;22317;47.936;12.742;2023-07-28T08:49:57;21.40;48.80
36280;DHT22;22317;47.936;12.742;2023-07-28T08:52:23;21.60;48.50
36280;DHT22;22317;47.936;12.742;2023-07-28T08:54:51;21.70;47.70
36280;DHT22;22317;47.936;12.742;2023-07-28T08:57:17;21.70;47.20
36280;DHT22;22317;47.936;12.742;2023-07-28T08:59:45;21.70;47.20
36280;DHT22;22317;47.936;12.742;2023-07-28T09:02:18;21.80;47.20
36280;DHT22;22317;47.936;12.742;2023-07-28T09:04:48;21.80;46.90
36280;DHT22;22317;47.936;12.742;2023-07-28T09:07:14;21.90;46.70
36280;DHT22;22317;47.936;12.742;2023-07-28T09:09:40;22.00;46.50
36280;DHT22;22317;47.936;12.742;2023-07-28T09:12:07;22.10;46.00
36280;DHT22;22317;47.936;12.742;2023-07-28T09:14:35;22.20;45.70
36280;DHT22;22317;47.936;12.742;2023-07-28T09:17:09;22.20;45.50
36280;DHT22;22317;47.936;12.742;2023-07-28T09:19:53;22.30;45.50
36280;DHT22;22317;47.936;12.742;2023-07-28T09:22:19;22.40;45.40
36280;DHT22;22317;47.936;12.742;2023-07-28T09:24:46;22.50;45.50
36280;DHT22;22317;47.936;12.742;2023-07-28T09:27:24;22.60;45.00
36280;DHT22;22317;47.936;12.742;2023-07-28T09:29:51;22.70;44.60
36280;DHT22;22317;47.936;12.742;2023-07-28T09:32:27;22.80;44.90
36280;DHT22;22317;47.936;12.742;2023-07-28T09:37:37;23.10;44.10
36280;DHT22;22317;47.936;12.742;2023-07-28T09:40:09;23.20;43.90
36280;DHT22;22317;47.936;12.742;2023-07-28T09:42:42;23.30;44.20
36280;DHT22;22317;47.936;12.742;2023-07-28T09:45:08;22.40;43.40
36280;DHT22;22317;47.936;12.742;2023-07-28T09:47:37;23.50;43.90
36280;DHT22;22317;47.936;12.742;2023-07-28T09:50:08;24.40;44.20
36280;DHT22;22317;47.936;12.742;2023-07-28T09:52:41;23.70;43.50
36280;DHT22;22317;47.936;12.742;2023-07-28T09:55:09;23.90;43.70
36280;DHT22;22317;47.936;12.742;2023-07-28T09:58:01;24.00;43.30
36280;DHT22;22317;47.936;12.742;2023-07-28T10:00:25;24.20;42.60
36280;DHT22;22317;47.936;12.742;2023-07-28T10:02:52;24.20;42.40
36280;DHT22;22317;47.936;12.742;2023-07-28T10:05:18;24.30;42.30
36280;DHT22;22317;47.936;12.742;2023-07-28T10:07:45;24.40;42.10
36280;DHT22;22317;47.936;12.742;2023-07-28T10:10:13;24.50;42.10
36280;DHT22;22317;47.936;12.742;2023-07-28T10:12:50;24.60;42.20
36280;DHT22;22317;47.936;12.742;2023-07-28T10:15:18;24.80;41.70
36280;DHT22;22317;47.936;12.742;2023-07-28T10:17:46;24.90;41.50
36280;DHT22;22317;47.936;12.742;2023-07-28T10:20:36;25.00;41.00
36280;DHT22;22317;47.936;12.742;2023-07-28T10:23:14;25.20;40.30
36280;DHT22;22317;47.936;12.742;2023-07-28T10:25:42;25.40;40.30
36280;DHT22;22317;47.936;12.742;2023-07-28T10:28:26;25.50;40.30
36280;DHT22;22317;47.936;12.742;2023-07-28T10:30:54;25.60;39.30
36280;DHT22;22317;47.936;12.742;2023-07-28T10:33:30;25.60;39.40
36280;DHT22;22317;47.936;12.742;2023-07-28T10:35:58;25.60;38.90
36280;DHT22;22317;47.936;12.742;2023-07-28T10:38:32;25.50;38.80
36280;DHT22;22317;47.936;12.742;2023-07-28T10:41:15;25.30;38.10
36280;DHT22;22317;47.936;12.742;2023-07-28T10:43:42;25.00;38.30
36280;DHT22;22317;47.936;12.742;2023-07-28T10:46:10;24.90;38.80
36280;DHT22;22317;47.936;12.742;2023-07-28T10:48:36;24.70;38.70
36280;DHT22;22317;47.936;12.742;2023-07-28T10:51:03;24.50;38.80
36280;DHT22;22317;47.936;12.742;2023-07-28T10:53:29;24.30;39.10
36280;DHT22;22317;47.936;12.742;2023-07-28T10:55:56;24.20;39.30
36280;DHT22;22317;47.936;12.742;2023-07-28T10:58:22;24.00;39.50
36280;DHT22;22317;47.936;12.742;2023-07-28T11:00:50;23.80;39.80
36280;DHT22;22317;47.936;12.742;2023-07-28T11:03:16;23.70;40.10
36280;DHT22;22317;47.936;12.742;2023-07-28T11:05:42;23.60;40.50
36280;DHT22;22317;47.936;12.742;2023-07-28T11:08:08;23.40;40.60
36280;DHT22;22317;47.936;12.742;2023-07-28T11:10:33;23.20;41.70
36280;DHT22;22317;47.936;12.742;2023-07-28T11:13:02;23.00;42.40
36280;DHT22;22317;47.936;12.742;2023-07-28T11:15:28;22.80;42.80
36280;DHT22;22317;47.936;12.742;2023-07-28T11:17:54;22.60;43.60
36280;DHT22;22317;47.936;12.742;2023-07-28T11:20:22;22.40;44.40
36280;DHT22;22317;47.936;12.742;2023-07-28T11:25:20;22.30;46.00
36280;DHT22;22317;47.936;12.742;2023-07-28T11:27:50;22.30;46.10
36280;DHT22;22317;47.936;12.742;2023-07-28T11:30:18;22.20;46.40
36280;DHT22;22317;47.936;12.742;2023-07-28T11:32:48;22.10;46.80
36280;DHT22;22317;47.936;12.742;2023-07-28T11:35:16;22.10;47.00
36280;DHT22;22317;47.936;12.742;2023-07-28T11:37:44;21.90;47.20
36280;DHT22;22317;47.936;12.742;2023-07-28T11:40:11;21.90;47.40
36280;DHT22;22317;47.936;12.742;2023-07-28T11:42:39;21.80;47.60
36280;DHT22;22317;47.936;12.742;2023-07-28T11:45:06;21.70;47.80
36280;DHT22;22317;47.936;12.742;2023-07-28T11:47:33;21.60;48.00
36280;DHT22;22317;47.936;12.742;2023-07-28T11:49:58;21.60;48.10
36280;DHT22;22317;47.936;12.742;2023-07-28T11:52:37;21.60;47.90
36280;DHT22;22317;47.936;12.742;2023-07-28T11:55:06;21.60;47.90
36280;DHT22;22317;47.936;12.742;2023-07-28T11:57:32;21.60;47.70
36280;DHT22;22317;47.936;12.742;2023-07-28T11:59:59;21.60;47.60
36280;DHT22;22317;47.936;12.742;2023-07-28T12:02:27;21.70;47.30
36280;DHT22;22317;47.936;12.742;2023-07-28T12:04:53;21.80;47.20
36280;DHT22;22317;47.936;12.742;2023-07-28T12:07:28;21.80;47.00
36280;DHT22;22317;47.936;12.742;2023-07-28T12:09:54;22.00;47.10
36280;DHT22;22317;47.936;12.742;2023-07-28T12:12:28;22.00;46.60
36280;DHT22;22317;47.936;12.742;2023-07-28T12:14:58;22.00;46.00
36280;DHT22;22317;47.936;12.742;2023-07-28T12:17:30;22.10;45.70
36280;DHT22;22317;47.936;12.742;2023-07-28T12:22:26;22.10;45.50
36280;DHT22;22317;47.936;12.742;2023-07-28T12:24:53;22.10;45.30
36280;DHT22;22317;47.936;12.742;2023-07-28T12:27:19;22.10;45.00
36280;DHT22;22317;47.936;12.742;2023-07-28T12:29:53;22.10;44.80
36280;DHT22;22317;47.936;12.742;2023-07-28T12:32:19;22.00;44.40
36280;DHT22;22317;47.936;12.742;2023-07-28T12:34:44;22.00;44.50
36280;DHT22;22317;47.936;12.742;2023-07-28T12:37:10;22.10;44.40
36280;DHT22;22317;47.936;12.742;2023-07-28T12:39:38;22.20;44.50
36280;DHT22;22317;47.936;12.742;2023-07-28T12:42:07;22.30;44.00
36280;DHT22;22317;47.936;12.742;2023-07-28T12:44:33;22.50;43.80
36280;DHT22;22317;47.936;12.742;2023-07-28T12:47:00;22.60;43.60
36280;DHT22;22317;47.936;12.742;2023-07-28T12:49:25;22.90;43.70
36280;DHT22;22317;47.936;12.742;2023-07-28T12:51:51;23.20;43.20
36280;DHT22;22317;47.936;12.742;2023-07-28T12:54:17;23.50;42.80
36280;DHT22;22317;47.936;12.742;2023-07-28T12:56:43;23.80;42.60
36280;DHT22;22317;47.936;12.742;2023-07-28T12:59:08;24.10;42.00
36280;DHT22;22317;47.936;12.742;2023-07-28T13:01:37;24.30;41.10
36280;DHT22;22317;47.936;12.742;2023-07-28T13:04:02;24.50;41.20
36280;DHT22;22317;47.936;12.742;2023-07-28T13:06:28;24.80;41.40
36280;DHT22;22317;47.936;12.742;2023-07-28T13:08:54;25.10;40.60
36280;DHT22;22317;47.936;12.742;2023-07-28T13:11:20;25.40;39.70
36280;DHT22;22317;47.936;12.742;2023-07-28T13:13:45;25.60;39.40
36280;DHT22;22317;47.936;12.742;2023-07-28T13:16:11;25.90;38.60
36280;DHT22;22317;47.936;12.742;2023-07-28T13:18:37;26.00;38.00
36280;DHT22;22317;47.936;12.742;2023-07-28T13:21:02;26.10;38.20
36280;DHT22;22317;47.936;12.742;2023-07-28T13:23:28;26.20;37.70
36280;DHT22;22317;47.936;12.742;2023-07-28T13:25:54;26.30;37.50
36280;DHT22;22317;47.936;12.742;2023-07-28T13:28:20;26.50;37.40
36280;DHT22;22317;47.936;12.742;2023-07-28T13:30:46;26.40;36.90
36280;DHT22;22317;47.936;12.742;2023-07-28T13:33:12;26.40;36.90
36280;DHT22;22317;47.936;12.742;2023-07-28T13:35:37;26.30;37.00
36280;DHT22;22317;47.936;12.742;2023-07-28T13:38:03;26.50;37.20
36280;DHT22;22317;47.936;12.742;2023-07-28T13:40:29;26.60;36.90
36280;DHT22;22317;47.936;12.742;2023-07-28T13:42:54;26.80;36.60
36280;DHT22;22317;47.936;12.742;2023-07-28T13:45:20;26.90;36.20
36280;DHT22;22317;47.936;12.742;2023-07-28T13:47:46;26.90;36.20
36280;DHT22;22317;47.936;12.742;2023-07-28T13:50:12;26.90;35.70
36280;DHT22;22317;47.936;12.742;2023-07-28T13:52:37;26.90;36.10
36280;DHT22;22317;47.936;12.742;2023-07-28T13:55:04;27.00;35.90
36280;DHT22;22317;47.936;12.742;2023-07-28T13:57:32;27.00;35.50
36280;DHT22;22317;47.936;12.742;2023-07-28T13:59:58;27.10;35.40
36280;DHT22;22317;47.936;12.742;2023-07-28T14:02:23;27.10;35.10
36280;DHT22;22317;47.936;12.742;2023-07-28T14:04:49;27.10;35.10
36280;DHT22;22317;47.936;12.742;2023-07-28T14:07:19;27.20;35.10
36280;DHT22;22317;47.936;12.742;2023-07-28T14:09:45;27.20;35.20
36280;DHT22;22317;47.936;12.742;2023-07-28T14:12:11;27.20;35.00
36280;DHT22;22317;47.936;12.742;2023-07-28T14:14:36;27.10;35.00
36280;DHT22;22317;47.936;12.742;2023-07-28T14:17:03;27.10;35.00
36280;DHT22;22317;47.936;12.742;2023-07-28T14:19:28;27.00;34.90
36280;DHT22;22317;47.936;12.742;2023-07-28T14:21:54;26.90;34.70
36280;DHT22;22317;47.936;12.742;2023-07-28T14:24:20;26.70;34.90
36280;DHT22;22317;47.936;12.742;2023-07-28T14:26:45;26.60;35.00
36280;DHT22;22317;47.936;12.742;2023-07-28T14:29:11;26.50;35.30
36280;DHT22;22317;47.936;12.742;2023-07-28T14:31:37;26.40;35.60
36280;DHT22;22317;47.936;12.742;2023-07-28T14:34:03;26.30;35.90
36280;DHT22;22317;47.936;12.742;2023-07-28T14:36:28;26.30;36.10
36280;DHT22;22317;47.936;12.742;2023-07-28T14:38:54;26.20;36.90
36280;DHT22;22317;47.936;12.742;2023-07-28T14:41:20;26.20;36.00
36280;DHT22;22317;47.936;12.742;2023-07-28T14:43:45;26.10;35.80
36280;DHT22;22317;47.936;12.742;2023-07-28T14:46:11;26.00;35.70
36280;DHT22;22317;47.936;12.742;2023-07-28T14:48:37;26.00;35.70
36280;DHT22;22317;47.936;12.742;2023-07-28T14:51:02;25.90;35.70
36280;DHT22;22317;47.936;12.742;2023-07-28T14:53:34;25.80;36.00
36280;DHT22;22317;47.936;12.742;2023-07-28T14:56:01;25.70;36.00
36280;DHT22;22317;47.936;12.742;2023-07-28T14:58:28;25.60;36.20
36280;DHT22;22317;47.936;12.742;2023-07-28T15:00:54;25.50;36.20
36280;DHT22;22317;47.936;12.742;2023-07-28T15:03:20;25.40;36.30
36280;DHT22;22317;47.936;12.742;2023-07-28T15:05:46;25.20;36.20
36280;DHT22;22317;47.936;12.742;2023-07-28T15:08:13;25.10;36.30
36280;DHT22;22317;47.936;12.742;2023-07-28T15:10:38;24.90;36.60
36280;DHT22;22317;47.936;12.742;2023-07-28T15:13:04;24.70;36.80
36280;DHT22;22317;47.936;12.742;2023-07-28T15:15:30;24.60;37.00
36280;DHT22;22317;47.936;12.742;2023-07-28T15:17:56;24.40;37.20
36280;DHT22;22317;47.936;12.742;2023-07-28T15:20:21;24.30;37.60
36280;DHT22;22317;47.936;12.742;2023-07-28T15:22:48;24.30;37.90
36280;DHT22;22317;47.936;12.742;2023-07-28T15:25:14;24.30;38.10
36280;DHT22;22317;47.936;12.742;2023-07-28T15:27:43;24.30;38.20